Time;durP1;ratioP1;P1;durP2;ratioP2;P2;SDS_P1;SDS_P2;PMS_P1;PMS_P2;Temp;Humidity;BMP_temperature;BMP_pressure;BME280_temperature;BME280_humidity;BME280_pressure;Samples;Min_cycle;Max_cycle;Signal;HPM_P1;HPM_P2
2022/06/15 00:01:54;;;;;;;2.65;1.35;;;12.70;99.90;;;;;;4975726;28;20114;-85
2022/06/15 00:04:20;;;;;;;5.18;2.78;;;12.70;99.90;;;;;;4966782;28;20074;-86
2022/06/15 00:06:46;;;;;;;7.57;1.98;;;12.60;99.90;;;;;;4955500;28;20459;-85
2022/06/15 00:09:12;;;;;;;4.47;2.22;;;12.70;99.90;;;;;;4969724;28;20082;-85
2022/06/15 00:11:41;;;;;;;3.90;1.80;;;12.40;99.90;;;;;;4959526;28;20049;-86
2022/06/15 00:14:15;;;;;;;2.45;1.80;;;12.60;99.90;;;;;;4976564;28;20058;-85
2022/06/15 00:16:41;;;;;;;3.53;1.70;;;12.50;99.90;;;;;;4972606;28;20093;-85
2022/06/15 00:19:07;;;;;;;4.57;2.05;;;12.60;99.90;;;;;;4947520;28;20484;-86
2022/06/15 00:21:33;;;;;;;3.65;2.00;;;12.60;99.90;;;;;;4954091;28;20054;-86
2022/06/15 00:23:58;;;;;;;3.45;2.10;;;12.40;99.90;;;;;;4965091;28;20181;-86
2022/06/15 00:26:24;;;;;;;3.92;2.03;;;12.40;99.90;;;;;;4969106;28;20047;-84
2022/06/15 00:28:51;;;;;;;4.00;1.98;;;12.30;99.90;;;;;;4968844;28;20070;-86
2022/06/15 00:31:18;;;;;;;4.10;1.88;;;12.40;99.90;;;;;;4970962;28;20042;-86
2022/06/15 00:33:44;;;;;;;2.92;1.88;;;12.30;99.90;;;;;;4952011;28;20074;-85
2022/06/15 00:36:13;;;;;;;6.15;1.60;;;12.30;99.90;;;;;;4947689;28;20488;-86
2022/06/15 00:38:42;;;;;;;5.03;2.08;;;12.30;99.90;;;;;;4972833;28;20046;-86
2022/06/15 00:41:11;;;;;;;3.50;1.77;;;12.20;99.90;;;;;;4963576;28;20117;-86
2022/06/15 00:43:41;;;;;;;4.03;1.90;;;12.20;99.90;;;;;;4945416;28;20475;-86
2022/06/15 00:46:30;;;;;;;4.05;2.03;;;12.50;99.90;;;;;;4947977;28;20051;-85
2022/06/15 00:49:21;;;;;;;4.05;2.20;;;12.10;99.90;;;;;;4972685;28;20047;-85
2022/06/15 00:51:53;;;;;;;4.80;2.33;;;12.10;99.90;;;;;;4948066;28;20059;-86
2022/06/15 00:54:19;;;;;;;4.30;2.33;;;12.10;99.90;;;;;;4954253;28;20471;-85
2022/06/15 00:56:45;;;;;;;4.05;2.40;;;12.10;99.90;;;;;;4947261;28;20061;-85
2022/06/15 00:59:42;;;;;;;3.17;1.90;;;12.00;99.90;;;;;;4964505;28;20531;-85
2022/06/15 01:02:08;;;;;;;4.53;2.15;;;12.00;99.90;;;;;;4969012;28;20447;-86
2022/06/15 01:04:44;;;;;;;3.40;1.70;;;11.90;99.90;;;;;;4972218;28;20042;-86
2022/06/15 01:07:31;;;;;;;5.63;2.00;;;11.90;99.90;;;;;;4974114;28;20051;-86
2022/06/15 01:10:18;;;;;;;3.53;2.10;;;11.80;99.90;;;;;;4971687;28;20413;-85
2022/06/15 01:13:16;;;;;;;2.78;1.70;;;11.80;99.90;;;;;;4965159;28;20055;-85
2022/06/15 01:15:48;;;;;;;3.75;2.00;;;11.80;99.90;;;;;;4974545;28;20621;-86
2022/06/15 01:18:31;;;;;;;5.03;2.10;;;11.70;99.90;;;;;;4950335;28;20062;-86
2022/06/15 01:21:07;;;;;;;5.45;2.22;;;11.70;99.90;;;;;;4952666;29;20116;-86
2022/06/15 01:23:53;;;;;;;3.25;1.55;;;11.70;99.90;;;;;;4955513;28;20141;-85
2022/06/15 01:26:47;;;;;;;4.20;2.20;;;11.60;99.90;;;;;;4954734;28;20085;-85
2022/06/15 01:29:50;;;;;;;3.25;2.10;;;11.60;99.90;;;;;;4972066;28;20090;-85
2022/06/15 01:32:47;;;;;;;5.20;2.53;;;11.60;99.90;;;;;;4947683;28;20055;-86
2022/06/15 01:35:17;;;;;;;6.03;2.25;;;11.60;99.90;;;;;;4951731;28;20554;-86
2022/06/15 01:38:25;;;;;;;2.70;2.05;;;11.60;99.90;;;;;;4947292;29;20526;-86
2022/06/15 01:41:17;;;;;;;3.20;1.90;;;11.50;99.90;;;;;;4953813;29;20043;-86
2022/06/15 01:44:01;;;;;;;3.08;2.00;;;11.50;99.90;;;;;;4974429;28;20042;-86
2022/06/15 01:46:28;;;;;;;2.92;2.05;;;11.50;99.90;;;;;;4954393;28;20057;-86
2022/06/15 01:48:56;;;;;;;3.38;2.03;;;11.50;99.90;;;;;;4967860;28;20403;-86
2022/06/15 01:51:29;;;;;;;5.50;1.80;;;11.50;99.90;;;;;;4957767;28;20050;-86
2022/06/15 01:54:27;;;;;;;1.98;1.45;;;11.40;99.90;;;;;;4937307;29;20058;-85
2022/06/15 01:56:54;;;;;;;4.47;1.98;;;11.40;99.90;;;;;;4943584;29;20062;-86
2022/06/15 01:59:27;;;;;;;4.32;1.90;;;11.30;99.90;;;;;;4963843;28;20071;-85
2022/06/15 02:02:25;;;;;;;1.85;1.23;;;11.30;99.90;;;;;;4964475;28;20054;-85
2022/06/15 02:05:10;;;;;;;3.38;1.70;;;11.10;99.90;;;;;;4946926;28;20047;-86
2022/06/15 02:07:56;;;;;;;3.00;2.00;;;11.20;99.90;;;;;;4947269;28;20047;-86
2022/06/15 02:10:27;;;;;;;3.80;1.90;;;11.20;99.90;;;;;;4957820;28;20043;-86
2022/06/15 02:12:56;;;;;;;2.92;1.80;;;11.20;99.90;;;;;;4949558;28;20078;-85
2022/06/15 02:15:25;;;;;;;5.28;1.85;;;11.20;99.90;;;;;;4951671;29;20122;-85
2022/06/15 02:17:53;;;;;;;3.58;1.95;;;11.40;99.90;;;;;;4953458;28;20057;-86
2022/06/15 02:20:24;;;;;;;4.63;2.58;;;11.10;99.90;;;;;;4951637;28;20443;-85
2022/06/15 02:22:51;;;;;;;2.60;1.77;;;10.70;99.90;;;;;;4966490;28;20106;-86
2022/06/15 02:25:21;;;;;;;3.28;1.80;;;11.10;99.90;;;;;;4957611;28;20361;-86
2022/06/15 02:27:50;;;;;;;4.80;1.95;;;11.10;99.90;;;;;;4949147;28;20055;-87
2022/06/15 02:30:22;;;;;;;3.42;1.90;;;11.10;99.90;;;;;;4966997;28;20039;-86
2022/06/15 02:32:49;;;;;;;5.82;2.35;;;11.10;99.90;;;;;;4950443;29;20501;-86
2022/06/15 02:35:17;;;;;;;3.15;1.40;;;11.10;99.90;;;;;;4972412;28;20145;-86
2022/06/15 02:37:44;;;;;;;3.35;2.08;;;11.10;99.90;;;;;;4974387;28;20126;-86
2022/06/15 02:40:15;;;;;;;2.75;1.70;;;11.10;99.90;;;;;;4949102;28;20043;-86
2022/06/15 02:42:41;;;;;;;2.28;1.33;;;10.30;99.90;;;;;;4957373;28;20121;-86
2022/06/15 02:45:11;;;;;;;3.92;1.63;;;11.20;99.90;;;;;;4966421;28;20134;-86
2022/06/15 02:47:40;;;;;;;2.83;1.60;;;11.20;99.90;;;;;;4955842;28;20074;-86
2022/06/15 02:50:08;;;;;;;2.35;1.73;;;11.50;99.90;;;;;;4966743;28;20050;-86
2022/06/15 02:52:42;;;;;;;3.60;1.67;;;11.20;99.90;;;;;;4973583;28;20061;-86
2022/06/15 02:55:09;;;;;;;2.78;1.20;;;11.20;99.90;;;;;;4950079;29;20122;-86
2022/06/15 02:57:51;;;;;;;2.85;1.50;;;11.30;99.90;;;;;;4964649;28;20053;-87
2022/06/15 03:00:20;;;;;;;1.52;1.20;;;11.30;99.90;;;;;;4956440;28;20040;-86
2022/06/15 03:02:46;;;;;;;1.98;1.58;;;11.40;99.90;;;;;;4953701;28;20051;-86
2022/06/15 03:05:12;;;;;;;1.55;1.10;;;11.40;99.90;;;;;;4969356;28;20126;-86
2022/06/15 03:07:38;;;;;;;1.48;0.93;;;11.60;99.90;;;;;;4965702;28;20047;-86
2022/06/15 03:10:04;;;;;;;1.60;1.13;;;11.50;99.90;;;;;;4956493;28;20416;-86
2022/06/15 03:12:30;;;;;;;2.22;1.20;;;11.50;99.90;;;;;;4944642;29;20392;-85
2022/06/15 03:14:56;;;;;;;1.63;0.90;;;12.20;99.90;;;;;;4956293;28;20043;-86
2022/06/15 03:17:22;;;;;;;1.92;1.20;;;11.60;99.90;;;;;;4948518;28;20388;-85
2022/06/15 03:19:47;;;;;;;1.35;0.98;;;11.50;99.90;;;;;;4955524;28;20137;-86
2022/06/15 03:22:13;;;;;;;1.38;1.10;;;11.60;99.90;;;;;;4946869;29;20039;-86
2022/06/15 03:24:39;;;;;;;1.70;1.00;;;11.60;99.90;;;;;;4963849;28;20046;-86
2022/06/15 03:27:05;;;;;;;2.47;1.20;;;11.60;99.90;;;;;;4970813;28;20130;-86
2022/06/15 03:29:31;;;;;;;2.30;1.00;;;11.70;99.90;;;;;;4967242;28;20038;-87
2022/06/15 03:31:57;;;;;;;1.75;1.10;;;11.60;99.90;;;;;;4970211;28;20046;-87
2022/06/15 03:34:23;;;;;;;2.75;1.40;;;11.60;99.90;;;;;;4966233;28;20043;-86
2022/06/15 03:36:48;;;;;;;1.40;0.98;;;11.80;99.90;;;;;;4949700;29;20373;-87
2022/06/15 03:39:15;;;;;;;3.65;1.08;;;11.80;99.90;;;;;;4972554;28;20118;-85
2022/06/15 03:41:42;;;;;;;2.13;1.20;;;11.80;99.90;;;;;;4969505;28;20118;-86
2022/06/15 03:44:09;;;;;;;1.75;1.02;;;11.80;99.90;;;;;;4945183;28;20074;-86
2022/06/15 03:46:35;;;;;;;2.05;1.20;;;12.20;99.90;;;;;;4971272;28;20518;-86
2022/06/15 03:49:02;;;;;;;1.58;0.80;;;11.80;99.90;;;;;;4959344;29;20047;-86
2022/06/15 03:51:28;;;;;;;3.65;1.20;;;12.20;99.90;;;;;;4958383;28;20050;-86
2022/06/15 03:53:54;;;;;;;2.85;1.35;;;11.90;99.90;;;;;;4962468;28;20047;-86
2022/06/15 03:56:20;;;;;;;1.95;1.23;;;11.90;99.90;;;;;;4953513;28;20047;-85
2022/06/15 03:58:46;;;;;;;1.90;1.20;;;12.00;99.90;;;;;;4971469;28;20074;-86
2022/06/15 04:01:12;;;;;;;2.60;1.45;;;12.20;99.90;;;;;;4973370;28;20078;-86
2022/06/15 04:03:38;;;;;;;2.30;0.95;;;12.40;99.90;;;;;;4953307;28;20039;-86
2022/06/15 04:06:05;;;;;;;2.88;1.45;;;11.90;99.90;;;;;;4949518;28;20117;-86
2022/06/15 04:08:34;;;;;;;4.32;1.40;;;12.00;99.90;;;;;;4965065;28;20036;-85
2022/06/15 04:11:04;;;;;;;1.85;1.17;;;12.00;99.90;;;;;;4956231;28;20483;-86
2022/06/15 04:13:30;;;;;;;2.35;0.90;;;12.00;99.90;;;;;;4965017;28;20045;-85
2022/06/15 04:15:55;;;;;;;2.22;1.42;;;12.20;99.90;;;;;;4972135;28;20125;-84
2022/06/15 04:18:21;;;;;;;1.98;0.90;;;12.10;99.90;;;;;;4967119;28;20036;-86
2022/06/15 04:20:47;;;;;;;2.13;1.00;;;12.20;99.90;;;;;;4953330;28;20584;-87
2022/06/15 04:23:16;;;;;;;2.67;0.90;;;12.20;99.90;;;;;;4948310;28;20043;-87
2022/06/15 04:26:00;;;;;;;1.80;0.82;;;12.30;99.90;;;;;;4972802;28;20050;-87
2022/06/15 04:28:28;;;;;;;1.73;0.90;;;12.40;99.90;;;;;;4965621;28;20079;-86
2022/06/15 04:30:54;;;;;;;1.20;0.90;;;12.60;99.90;;;;;;4971744;28;20462;-86
2022/06/15 04:33:23;;;;;;;1.48;0.70;;;12.50;99.90;;;;;;4965729;28;20035;-86
2022/06/15 04:35:49;;;;;;;1.45;0.90;;;12.60;99.90;;;;;;4953993;28;20043;-86
2022/06/15 04:38:15;;;;;;;2.90;1.73;;;12.70;99.90;;;;;;4947741;28;20062;-86
2022/06/15 04:40:40;;;;;;;3.97;1.80;;;12.70;99.90;;;;;;4950649;29;20039;-86
2022/06/15 04:43:08;;;;;;;2.75;1.30;;;12.30;99.90;;;;;;4956584;28;20043;-85
2022/06/15 04:45:35;;;;;;;2.72;1.25;;;12.80;99.90;;;;;;4972380;28;20432;-86
2022/06/15 04:48:01;;;;;;;2.25;1.02;;;12.80;99.90;;;;;;4975244;28;20046;-86
2022/06/15 04:50:27;;;;;;;2.40;1.30;;;12.80;99.90;;;;;;4968549;28;20074;-86
2022/06/15 04:52:53;;;;;;;4.95;1.40;;;12.90;99.90;;;;;;4954754;28;20515;-86
2022/06/15 04:55:21;;;;;;;2.83;1.08;;;12.80;99.90;;;;;;4968162;28;20125;-86
2022/06/15 04:57:48;;;;;;;4.18;1.00;;;12.80;99.90;;;;;;4975573;28;20061;-86
2022/06/15 05:00:17;;;;;;;2.70;1.20;;;12.90;99.90;;;;;;4951695;29;20051;-87
2022/06/15 05:02:45;;;;;;;2.13;1.17;;;12.90;99.90;;;;;;4955860;28;20066;-86
2022/06/15 05:05:11;;;;;;;2.00;0.90;;;13.00;99.90;;;;;;4954270;28;20043;-85
2022/06/15 05:07:37;;;;;;;2.40;0.93;;;13.10;99.90;;;;;;4956767;28;20046;-86
2022/06/15 05:10:04;;;;;;;2.25;1.35;;;13.10;99.90;;;;;;4951768;28;20058;-86
2022/06/15 05:12:30;;;;;;;3.15;1.30;;;13.10;99.90;;;;;;4968047;28;20356;-86
2022/06/15 05:14:56;;;;;;;1.73;1.10;;;13.20;99.90;;;;;;4972647;28;20035;-86
2022/06/15 05:17:23;;;;;;;1.95;1.00;;;13.30;99.90;;;;;;4968547;28;20373;-86
2022/06/15 05:19:49;;;;;;;2.58;1.00;;;13.40;99.90;;;;;;4956951;28;20055;-86
2022/06/15 05:22:15;;;;;;;1.70;1.00;;;13.50;99.90;;;;;;4975680;28;20041;-85
2022/06/15 05:24:41;;;;;;;1.92;0.90;;;13.60;99.90;;;;;;4951113;29;20451;-85
2022/06/15 05:27:08;;;;;;;2.13;1.40;;;13.80;99.90;;;;;;4955282;28;20065;-86
2022/06/15 05:29:36;;;;;;;2.63;1.42;;;13.90;99.90;;;;;;4970862;28;20507;-85
2022/06/15 05:32:04;;;;;;;3.17;1.17;;;14.10;99.90;;;;;;4954869;28;20399;-85
2022/06/15 05:34:30;;;;;;;2.25;1.60;;;14.20;99.90;;;;;;4971122;28;20051;-85
2022/06/15 05:36:56;;;;;;;1.88;0.80;;;14.40;99.90;;;;;;4972675;28;20046;-87
2022/06/15 05:39:21;;;;;;;1.58;0.80;;;14.50;99.90;;;;;;4954467;28;20039;-86
2022/06/15 05:41:50;;;;;;;2.42;0.60;;;14.60;99.90;;;;;;4950445;28;20051;-86
2022/06/15 05:46:54;;;;;;;1.80;0.90;;;14.90;99.90;;;;;;4972405;28;20134;-87
2022/06/15 05:49:20;;;;;;;3.03;1.00;;;15.00;99.90;;;;;;4974174;28;20043;-88
2022/06/15 05:51:45;;;;;;;1.67;0.82;;;15.10;99.90;;;;;;4955559;28;20050;-88
2022/06/15 05:54:22;;;;;;;2.28;1.17;;;15.20;99.90;;;;;;4954475;28;20047;-89
2022/06/15 05:56:51;;;;;;;2.83;1.00;;;15.20;99.90;;;;;;4953678;28;20078;-88
2022/06/15 05:59:17;;;;;;;3.10;0.95;;;15.30;99.90;;;;;;4953815;28;20128;-87
2022/06/15 06:01:42;;;;;;;1.10;0.70;;;15.30;99.90;;;;;;4974935;28;20078;-87
2022/06/15 06:04:15;;;;;;;2.20;1.00;;;15.40;99.90;;;;;;4951649;29;20047;-87
2022/06/15 06:06:41;;;;;;;1.25;0.90;;;15.40;99.90;;;;;;4957244;28;20129;-88
2022/06/15 06:09:07;;;;;;;2.17;1.02;;;15.40;99.90;;;;;;4950244;28;20078;-86
2022/06/15 06:11:33;;;;;;;1.25;0.90;;;15.80;99.90;;;;;;4957307;28;20482;-86
2022/06/15 06:13:59;;;;;;;4.53;1.60;;;15.50;99.90;;;;;;4963745;28;20039;-84
2022/06/15 06:16:25;;;;;;;2.30;0.95;;;15.50;99.90;;;;;;4953001;28;20054;-84
2022/06/15 06:18:51;;;;;;;2.10;0.90;;;15.60;99.90;;;;;;4974230;28;20483;-85
2022/06/15 06:21:18;;;;;;;2.67;0.90;;;15.70;99.90;;;;;;4974702;28;20035;-86
2022/06/15 06:23:44;;;;;;;3.53;1.10;;;15.80;99.90;;;;;;4949696;28;20388;-86
2022/06/15 06:26:25;;;;;;;6.30;1.42;;;16.00;99.90;;;;;;4956448;28;20129;-84
2022/06/15 06:28:52;;;;;;;2.53;1.02;;;16.00;99.90;;;;;;4965455;28;20051;-85
2022/06/15 06:31:20;;;;;;;1.00;0.60;;;16.10;99.90;;;;;;4971047;28;20051;-85
2022/06/15 06:33:46;;;;;;;2.42;1.23;;;16.20;99.90;;;;;;4973689;28;20046;-85
2022/06/15 06:36:23;;;;;;;3.25;0.70;;;16.20;99.90;;;;;;4963643;28;20040;-85
2022/06/15 06:38:48;;;;;;;4.18;0.65;;;16.30;99.90;;;;;;4970922;28;20122;-85
2022/06/15 06:41:19;;;;;;;3.15;0.80;;;16.40;99.90;;;;;;4947844;28;20217;-86
2022/06/15 06:43:45;;;;;;;0.70;0.50;;;16.50;99.90;;;;;;4967432;28;20043;-86
2022/06/15 06:46:11;;;;;;;1.75;0.65;;;16.70;99.90;;;;;;4966837;28;20105;-87
2022/06/15 06:48:37;;;;;;;2.35;0.70;;;16.80;99.90;;;;;;4950544;29;20051;-90
2022/06/15 06:51:03;;;;;;;1.20;0.60;;;16.90;99.90;;;;;;4955671;28;20043;-88
2022/06/15 06:53:29;;;;;;;1.67;0.65;;;17.00;99.90;;;;;;4949455;28;20047;-87
2022/06/15 06:56:06;;;;;;;1.00;0.60;;;17.00;99.90;;;;;;4956377;28;20053;-86
2022/06/15 06:58:32;;;;;;;2.53;0.55;;;17.10;99.90;;;;;;4952151;28;20053;-88
2022/06/15 07:00:58;;;;;;;10.45;1.00;;;17.30;99.90;;;;;;4956358;28;20063;-89
2022/06/15 07:03:24;;;;;;;0.98;0.55;;;17.30;99.90;;;;;;4949702;28;20046;-87
2022/06/15 07:05:50;;;;;;;2.15;0.60;;;17.30;99.90;;;;;;4968652;28;20043;-85
2022/06/15 07:08:16;;;;;;;2.05;0.60;;;17.30;99.90;;;;;;4971100;28;21472;-88
2022/06/15 07:10:42;;;;;;;1.42;0.60;;;17.40;99.90;;;;;;4962099;28;20077;-88
2022/06/15 07:13:09;;;;;;;2.25;0.50;;;17.40;99.90;;;;;;4954526;28;20110;-90
2022/06/15 07:15:36;;;;;;;3.55;0.70;;;17.50;99.90;;;;;;4973810;28;20039;-89
2022/06/15 07:18:03;;;;;;;1.00;0.50;;;17.50;99.90;;;;;;4951588;28;20062;-89
2022/06/15 07:20:32;;;;;;;2.97;0.60;;;17.60;99.90;;;;;;4971404;28;20392;-87
2022/06/15 07:22:58;;;;;;;1.70;0.60;;;17.70;99.90;;;;;;4966950;28;20090;-85
2022/06/15 07:25:24;;;;;;;1.95;0.50;;;17.70;99.90;;;;;;4961771;28;20754;-88
2022/06/15 07:27:51;;;;;;;2.97;0.70;;;17.80;99.90;;;;;;4977190;28;20050;-88
2022/06/15 07:30:20;;;;;;;2.63;0.80;;;17.80;99.90;;;;;;4977701;28;20069;-85
2022/06/15 07:32:46;;;;;;;2.22;0.50;;;17.70;99.90;;;;;;4968042;29;20043;-86
2022/06/15 07:35:21;;;;;;;1.23;0.40;;;18.00;99.90;;;;;;4971492;28;20098;-89
2022/06/15 07:37:47;;;;;;;2.72;0.52;;;18.00;99.90;;;;;;4956748;28;20113;-90
2022/06/15 07:40:14;;;;;;;2.33;0.60;;;18.20;99.90;;;;;;4956729;28;20058;-89
2022/06/15 07:42:41;;;;;;;1.30;0.60;;;18.20;99.90;;;;;;4949895;28;20047;-89
2022/06/15 07:45:08;;;;;;;2.65;0.47;;;18.40;99.90;;;;;;4955888;28;20134;-90
2022/06/15 07:50:23;;;;;;;2.55;0.60;;;18.50;99.90;;;;;;4860349;29;20109;-90
2022/06/15 07:52:51;;;;;;;2.53;0.47;;;18.50;99.90;;;;;;4876317;29;20057;-89
2022/06/15 07:55:23;;;;;;;2.67;0.82;;;18.40;99.90;;;;;;4879441;29;20061;-89
2022/06/15 07:57:49;;;;;;;1.83;0.40;;;18.40;99.90;;;;;;4881160;29;20060;-89
2022/06/15 08:00:16;;;;;;;2.50;0.88;;;18.50;99.90;;;;;;4897578;29;20531;-89
2022/06/15 08:02:42;;;;;;;1.15;0.52;;;18.40;99.90;;;;;;4867454;29;20068;-90
2022/06/15 08:05:09;;;;;;;2.63;0.60;;;18.40;99.90;;;;;;4881996;29;20048;-89
2022/06/15 08:07:36;;;;;;;1.35;0.50;;;18.40;99.90;;;;;;4873500;29;20071;-89
2022/06/15 08:10:03;;;;;;;2.42;0.75;;;18.60;99.90;;;;;;4889830;29;20040;-91
2022/06/15 08:12:29;;;;;;;2.47;0.70;;;18.60;99.90;;;;;;4884200;29;20540;-86
2022/06/15 08:14:58;;;;;;;2.10;0.70;;;18.70;99.90;;;;;;4878799;29;20076;-87
2022/06/15 08:17:28;;;;;;;3.25;0.60;;;18.70;99.90;;;;;;4878177;29;20123;-87
2022/06/15 08:19:59;;;;;;;5.65;0.77;;;18.70;99.90;;;;;;4865332;29;20119;-88
2022/06/15 08:22:25;;;;;;;1.88;0.60;;;18.80;99.90;;;;;;4871262;29;20033;-87
2022/06/15 08:25:02;;;;;;;2.30;0.68;;;19.00;99.90;;;;;;4871579;29;20053;-90
2022/06/15 08:32:09;;;;;;;2.35;0.90;;;19.50;99.90;;;;;;4962427;28;20126;-90
2022/06/15 08:37:14;;;;;;;1.35;0.57;;;20.10;99.90;;;;;;5300478;23;20047;-88
2022/06/15 08:39:41;;;;;;;1.77;0.60;;;20.30;99.90;;;;;;4970280;28;20499;-87
2022/06/15 08:42:47;;;;;;;5.15;0.80;;;20.40;99.90;;;;;;4957471;23;20198;-87
2022/06/15 08:45:41;;;;;;;0.90;0.50;;;20.40;99.90;;;;;;4946662;29;20053;-88
2022/06/15 08:48:33;;;;;;;1.20;0.40;;;20.40;99.90;;;;;;4948949;28;20443;-87
2022/06/15 08:51:31;;;;;;;2.25;0.45;;;20.80;99.90;;;;;;4952447;28;20043;-88
2022/06/15 08:54:20;;;;;;;;;;;;;;;;;;;;;
2022/06/15 08:57:02;;;;;;;1.55;0.40;;;21.20;99.90;;;;;;4901074;29;20114;-88
2022/06/15 09:00:00;;;;;;;2.70;0.60;;;21.40;99.90;;;;;;4943917;29;20122;-89
2022/06/15 09:02:40;;;;;;;2.50;0.75;;;21.50;99.90;;;;;;4865350;29;20124;-88
2022/06/15 09:05:22;;;;;;;1.42;0.40;;;21.70;99.90;;;;;;4857775;29;20065;-86
2022/06/15 09:08:27;;;;;;;3.50;0.43;;;21.90;99.90;;;;;;4859206;29;20398;-86
2022/06/15 09:11:13;;;;;;;2.83;0.50;;;22.10;99.90;;;;;;4857754;29;20140;-90
2022/06/15 09:14:05;;;;;;;2.97;0.60;;;22.20;99.90;;;;;;4874287;29;20514;-85
2022/06/15 09:16:43;;;;;;;2.33;0.50;;;21.90;99.90;;;;;;4876238;29;20052;-86
2022/06/15 09:19:22;;;;;;;2.88;0.60;;;22.10;99.90;;;;;;4845157;29;20056;-85
2022/06/15 09:22:04;;;;;;;2.08;0.80;;;22.20;99.90;;;;;;4860748;29;20056;-85
2022/06/15 09:24:53;;;;;;;2.45;0.65;;;22.00;99.90;;;;;;4860775;29;20068;-86
2022/06/15 09:27:28;;;;;;;2.28;0.60;;;21.90;99.90;;;;;;4876176;29;20060;-85
2022/06/15 09:30:09;;;;;;;3.70;0.60;;;21.80;99.90;;;;;;4885362;29;20060;-85
2022/06/15 09:32:41;;;;;;;2.08;0.68;;;22.00;99.90;;;;;;4882425;29;20060;-86
2022/06/15 09:35:12;;;;;;;3.47;0.98;;;22.40;99.90;;;;;;4898150;29;20131;-86
2022/06/15 09:37:40;;;;;;;2.15;0.70;;;22.30;99.10;;;;;;4882381;29;20060;-86
2022/06/15 09:40:07;;;;;;;1.95;0.60;;;22.10;99.90;;;;;;4942972;28;20117;-85
2022/06/15 09:42:41;;;;;;;0.75;0.40;;;22.10;99.50;;;;;;4976185;28;20051;-86
2022/06/15 09:45:38;;;;;;;0.85;0.50;;;22.50;99.90;;;;;;4976317;28;20047;-85
2022/06/15 09:48:32;;;;;;;2.03;0.60;;;22.80;99.40;;;;;;4916554;29;20052;-86
2022/06/15 09:51:24;;;;;;;1.50;0.60;;;22.80;97.80;;;;;;4916882;29;20548;-85
2022/06/15 09:54:28;;;;;;;2.10;0.85;;;22.60;97.60;;;;;;4900740;29;20056;-86
2022/06/15 09:56:55;;;;;;;1.95;0.60;;;22.40;98.60;;;;;;4900707;29;20472;-86
2022/06/15 09:59:23;;;;;;;3.00;0.55;;;22.40;98.30;;;;;;4916536;29;20095;-86
2022/06/15 10:01:49;;;;;;;2.40;0.50;;;22.40;97.30;;;;;;4916561;29;20055;-86
2022/06/15 10:04:25;;;;;;;1.63;0.50;;;22.20;97.40;;;;;;4916375;29;20386;-86
2022/06/15 10:07:01;;;;;;;2.22;0.50;;;22.00;98.60;;;;;;4900810;29;20084;-86
2022/06/15 10:09:32;;;;;;;2.08;0.50;;;22.00;98.00;;;;;;4916329;29;20052;-85
2022/06/15 10:12:56;;;;;;;1.33;0.50;;;21.70;97.90;;;;;;4916242;29;20144;-86
2022/06/15 10:15:01;;;;;;;3.45;0.60;;;21.70;97.90;;;;;;4916212;29;20099;-86
2022/06/15 10:17:32;;;;;;;2.83;0.57;;;21.70;98.50;;;;;;4900827;29;20453;-86
2022/06/15 10:19:58;;;;;;;3.00;0.57;;;21.50;97.60;;;;;;4916341;29;20131;-86
2022/06/15 10:22:31;;;;;;;1.85;0.60;;;21.50;98.50;;;;;;4916323;29;20059;-86
2022/06/15 10:24:59;;;;;;;3.13;0.60;;;21.40;98.60;;;;;;4925091;28;20058;-85
2022/06/15 10:27:25;;;;;;;2.85;1.27;;;21.40;98.60;;;;;;4961864;28;20042;-85
2022/06/15 10:30:16;;;;;;;3.15;0.68;;;21.30;99.50;;;;;;4963978;28;20057;-86
2022/06/15 10:33:19;;;;;;;1.38;0.60;;;21.10;99.90;;;;;;4905952;29;20130;-86
2022/06/15 10:35:51;;;;;;;1.42;0.43;;;21.10;99.90;;;;;;4919106;29;20515;-86
2022/06/15 10:38:18;;;;;;;2.08;0.60;;;21.30;99.90;;;;;;4900301;29;20056;-86
2022/06/15 10:40:55;;;;;;;2.35;0.85;;;21.30;99.90;;;;;;4900158;29;20119;-86
2022/06/15 10:43:31;;;;;;;1.42;0.45;;;21.60;99.90;;;;;;4899976;29;20056;-86
2022/06/15 10:46:00;;;;;;;1.25;0.50;;;21.80;99.60;;;;;;4900199;29;20521;-86
2022/06/15 10:48:34;;;;;;;2.53;0.55;;;21.90;99.80;;;;;;4900108;29;20055;-86
2022/06/15 10:51:06;;;;;;;1.83;0.50;;;22.00;99.90;;;;;;4915494;29;20052;-86
2022/06/15 10:53:49;;;;;;;1.70;0.40;;;22.20;99.90;;;;;;4915736;29;20087;-86
2022/06/15 11:02:28;;;;;;;1.65;0.43;;;23.00;97.70;;;;;;4915679;29;20436;-85
2022/06/15 11:05:09;;;;;;;1.77;0.50;;;23.40;97.40;;;;;;4905276;29;20525;-85
2022/06/15 11:07:53;;;;;;;1.23;0.52;;;23.30;95.90;;;;;;4903427;29;20048;-85
2022/06/15 11:10:46;;;;;;;2.55;0.55;;;23.20;95.50;;;;;;4961663;28;20089;-86
2022/06/15 11:13:35;;;;;;;1.45;0.50;;;22.90;94.80;;;;;;4974794;28;20537;-86
2022/06/15 11:19:12;;;;;;;3.67;1.00;;;22.80;95.90;;;;;;4974939;28;20051;-86
2022/06/15 11:22:01;;;;;;;2.38;0.50;;;23.20;96.40;;;;;;4974701;28;20047;-86
2022/06/15 11:24:59;;;;;;;3.45;0.50;;;23.50;97.00;;;;;;4957773;28;20484;-86
2022/06/15 11:27:46;;;;;;;2.92;0.68;;;24.00;95.60;;;;;;4941479;28;20136;-86
2022/06/15 11:30:27;;;;;;;2.33;0.70;;;23.90;92.60;;;;;;4957162;28;20054;-85
2022/06/15 11:33:01;;;;;;;2.15;0.63;;;23.50;91.80;;;;;;4974421;28;20403;-86
2022/06/15 11:35:34;;;;;;;1.65;0.60;;;23.50;92.30;;;;;;4974654;28;20054;-86
2022/06/15 11:38:15;;;;;;;2.20;0.63;;;23.60;91.60;;;;;;4957312;28;20039;-86
2022/06/15 11:40:47;;;;;;;2.20;0.80;;;23.70;91.60;;;;;;4973089;28;20065;-85
2022/06/15 11:43:15;;;;;;;2.63;0.80;;;23.90;91.00;;;;;;4974076;28;20499;-86
2022/06/15 11:46:09;;;;;;;1.55;0.60;;;23.70;91.00;;;;;;4957136;28;20388;-86
2022/06/15 11:48:53;;;;;;;2.03;0.68;;;23.90;91.20;;;;;;4974345;28;20047;-86
2022/06/15 11:51:26;;;;;;;4.78;0.68;;;23.80;90.20;;;;;;4973430;28;20078;-86
2022/06/15 11:54:15;;;;;;;3.88;0.90;;;23.70;88.80;;;;;;4956690;28;20055;-86
2022/06/15 11:56:55;;;;;;;2.72;0.90;;;23.40;86.30;;;;;;4974168;28;20043;-86
2022/06/15 11:59:33;;;;;;;1.90;0.70;;;23.00;85.60;;;;;;4956622;28;20050;-86
2022/06/15 12:02:45;;;;;;;1.42;0.70;;;22.90;90.00;;;;;;4957028;28;20054;-86
2022/06/15 12:05:24;;;;;;;2.17;0.70;;;22.80;89.20;;;;;;4899093;29;20104;-86
2022/06/15 12:07:52;;;;;;;2.92;0.80;;;22.90;89.80;;;;;;4899358;29;20559;-87
2022/06/15 12:10:39;;;;;;;3.28;0.77;;;22.50;87.90;;;;;;4899379;29;20056;-86
2022/06/15 12:13:33;;;;;;;1.98;0.60;;;22.70;88.00;;;;;;4914654;29;20054;-85
2022/06/15 12:16:09;;;;;;;2.08;0.70;;;22.50;90.00;;;;;;4842709;29;20057;-85
2022/06/15 12:18:47;;;;;;;3.13;0.70;;;22.40;90.60;;;;;;4858151;29;20060;-86
2022/06/15 12:21:37;;;;;;;1.77;0.77;;;22.70;88.50;;;;;;4858126;29;20057;-85
2022/06/15 12:24:25;;;;;;;2.45;0.70;;;22.80;87.10;;;;;;4842742;29;20065;-84
2022/06/15 12:27:08;;;;;;;1.58;0.60;;;23.00;86.70;;;;;;4842655;29;20144;-86
2022/06/15 12:30:02;;;;;;;1.95;0.80;;;23.20;89.80;;;;;;4842591;29;20093;-85
2022/06/15 12:32:43;;;;;;;2.85;0.93;;;23.60;88.70;;;;;;4842995;29;20057;-85
2022/06/15 12:35:37;;;;;;;1.95;0.70;;;23.70;84.80;;;;;;4858265;29;20438;-86
2022/06/15 12:38:12;;;;;;;1.63;0.60;;;23.70;86.10;;;;;;4857967;29;20053;-86
2022/06/15 12:40:44;;;;;;;2.38;0.95;;;24.00;85.40;;;;;;4842602;29;20058;-86
2022/06/15 12:43:24;;;;;;;1.92;0.60;;;24.10;84.10;;;;;;4879511;29;20057;-86
2022/06/15 12:45:55;;;;;;;2.33;0.73;;;23.90;84.60;;;;;;4895414;29;20296;-86
2022/06/15 12:48:45;;;;;;;2.05;0.57;;;23.90;81.90;;;;;;4879652;29;20048;-86
2022/06/15 12:51:23;;;;;;;5.35;0.60;;;23.90;79.70;;;;;;4879925;29;20053;-87
2022/06/15 12:54:24;;;;;;;4.18;0.75;;;24.00;84.00;;;;;;4967746;28;20063;-86
2022/06/15 12:57:00;;;;;;;2.17;0.68;;;24.00;79.10;;;;;;4956662;28;20058;-86
2022/06/15 12:59:44;;;;;;;2.30;0.70;;;23.90;81.00;;;;;;4973494;28;20459;-86
2022/06/15 13:02:34;;;;;;;1.88;0.52;;;23.90;80.70;;;;;;4973407;28;20498;-86
2022/06/15 13:05:12;;;;;;;1.75;0.65;;;24.20;83.00;;;;;;4901699;29;20064;-85
2022/06/15 13:07:41;;;;;;;3.17;0.68;;;24.00;77.60;;;;;;4886034;29;20064;-86
2022/06/15 13:10:07;;;;;;;2.95;0.57;;;23.60;77.20;;;;;;4901813;29;20063;-86
2022/06/15 13:12:35;;;;;;;1.02;0.68;;;23.40;78.50;;;;;;4901709;29;20048;-85
2022/06/15 13:15:01;;;;;;;1.20;0.60;;;23.60;78.30;;;;;;4901686;29;20060;-86
2022/06/15 13:18:05;;;;;;;1.15;0.52;;;23.90;74.90;;;;;;4917509;29;20597;-86
2022/06/15 13:20:33;;;;;;;0.70;0.50;;;23.50;73.00;;;;;;4901460;29;20068;-86
2022/06/15 13:22:59;;;;;;;2.28;0.50;;;23.30;74.10;;;;;;4917403;29;20059;-86
2022/06/15 13:25:26;;;;;;;1.05;0.40;;;23.10;74.80;;;;;;4901558;29;20047;-86
2022/06/15 13:27:54;;;;;;;2.17;0.70;;;23.20;76.60;;;;;;4917216;29;20044;-85
2022/06/15 13:30:27;;;;;;;2.00;0.47;;;23.30;72.00;;;;;;4901543;29;20052;-85
2022/06/15 13:32:58;;;;;;;2.60;0.50;;;23.30;75.90;;;;;;4901163;29;20126;-86
2022/06/15 13:35:26;;;;;;;1.60;0.60;;;23.30;72.40;;;;;;4901406;29;20142;-86
2022/06/15 13:38:15;;;;;;;1.70;0.60;;;23.80;77.20;;;;;;4901185;29;20081;-86
2022/06/15 13:40:53;;;;;;;2.95;0.50;;;24.00;75.10;;;;;;4916772;29;20055;-86
2022/06/15 13:43:20;;;;;;;1.35;0.52;;;23.90;74.10;;;;;;4976205;28;20066;-85